Estación de Los Maquis

Ultimos registro cada 15 minutos 54
Estación Fecha / Hora Temperatura Humedad Lluvia Velocidad Dirección Radiación Presion
54 Los Maquis 10-05-2026 13:15 20,8 54 0 1,3 267 554 1018,4
53 Los Maquis 10-05-2026 13:00 20,3 53 0 1,3 311 559 1018,6
52 Los Maquis 10-05-2026 12:45 19,8 53 0 0,9 288 563 1018,8
51 Los Maquis 10-05-2026 12:30 19,2 55 0 0,9 306 564 1018,9
50 Los Maquis 10-05-2026 12:15 17,8 59 0 0,9 11 559 1019,1
49 Los Maquis 10-05-2026 12:00 17 62 0 0,9 276 554 1019,5
48 Los Maquis 10-05-2026 11:45 16,1 63 0 0,9 304 541 1019,5
47 Los Maquis 10-05-2026 11:30 14,9 66 0 0,4 105 527 1019,7
46 Los Maquis 10-05-2026 11:15 14,1 70 0 0,9 317 512 1019,9
45 Los Maquis 10-05-2026 11:00 12,9 75 0 0,9 261 492 1020
44 Los Maquis 10-05-2026 10:45 12 79 0 0,4 277 468 1020,3
43 Los Maquis 10-05-2026 10:30 11,1 81 0 0,9 292 441 1020,4
42 Los Maquis 10-05-2026 10:15 10,6 82 0 1,3 309 413 1020,6
41 Los Maquis 10-05-2026 10:00 10 82 0 0,9 281 383 1020,9
40 Los Maquis 10-05-2026 09:45 9,1 83 0 0 300 343 1021
39 Los Maquis 10-05-2026 09:30 8,1 86 0 0 345 302 1021
38 Los Maquis 10-05-2026 09:15 7,2 88 0 0 2 257 1020,9
37 Los Maquis 10-05-2026 09:00 6,6 89 0 0 21 49 1020,9
36 Los Maquis 10-05-2026 08:45 5,4 94 0 0,4 77 153 1020,6
35 Los Maquis 10-05-2026 08:30 2,9 94 0 0 90 79 1020,3
34 Los Maquis 10-05-2026 08:15 2,7 92 0 0 80 14 1020,4
33 Los Maquis 10-05-2026 08:00 2,9 93 0 0 80 12 1020,5
32 Los Maquis 10-05-2026 07:45 2,7 92 0,2 1,3 195 11 1020,5
31 Los Maquis 10-05-2026 07:30 3,1 93 0 0 124 5 1020,3
30 Los Maquis 10-05-2026 07:15 2,7 92 0 0 79 0 1020,5
29 Los Maquis 10-05-2026 07:00 3,1 92 0 0,4 78 0 1020,3
28 Los Maquis 10-05-2026 06:45 3,5 92 0 0,9 185 0 1020,4
27 Los Maquis 10-05-2026 06:30 3,4 91 0 0 92 0 1020,4
26 Los Maquis 10-05-2026 06:15 3,3 90 0 0 141 0 1020,1
25 Los Maquis 10-05-2026 06:00 3,6 88 0 0,9 215 0 1019,8
24 Los Maquis 10-05-2026 05:45 3,9 91 0 0,9 72 0 1019,8
23 Los Maquis 10-05-2026 05:30 3,4 91 0 0 194 0 1020,1
22 Los Maquis 10-05-2026 05:15 3,9 89 0 0,4 216 0 1020,1
21 Los Maquis 10-05-2026 05:00 3,7 89 0 0 77 0 1020
20 Los Maquis 10-05-2026 04:45 3,7 90 0 0 194 0 1020
19 Los Maquis 10-05-2026 04:30 3,8 90 0 0 185 0 1020
18 Los Maquis 10-05-2026 04:15 3,9 89 0 0 180 0 1020
17 Los Maquis 10-05-2026 04:00 4 89 0 0 113 0 1020
16 Los Maquis 10-05-2026 03:45 4,3 90 0 0 180 0 1020,1
15 Los Maquis 10-05-2026 03:30 4,4 88 0 0 180 0 1020,3
14 Los Maquis 10-05-2026 03:15 4,6 88 0 0,4 116 0 1020,3
13 Los Maquis 10-05-2026 03:00 4,9 88 0 0 84 0 1020,4
12 Los Maquis 10-05-2026 02:45 4,6 88 0 0,4 86 0 1020,8
11 Los Maquis 10-05-2026 02:30 4,7 90 0 0 259 0 1020,8
10 Los Maquis 10-05-2026 02:15 4,7 87 0 0,9 190 0 1020,7
9 Los Maquis 10-05-2026 02:00 5,3 86 0 0 169 0 1020,9
8 Los Maquis 10-05-2026 01:45 5,4 87 0 0 208 0 1020,9
7 Los Maquis 10-05-2026 01:30 5,6 86 0 0 128 0 1020,9
6 Los Maquis 10-05-2026 01:15 5,7 87 0 0 128 0 1020,9
5 Los Maquis 10-05-2026 01:00 5,8 87 0 0 133 0 1020,9
4 Los Maquis 10-05-2026 00:45 5,7 87 0 0 139 0 1021,3
3 Los Maquis 10-05-2026 00:30 6 86 0 0 138 0 1021,4
2 Los Maquis 10-05-2026 00:15 6,1 84 0 0 180 0 1021,5
1 Los Maquis 10-05-2026 00:00 6,2 84 0 0 175 0 1021,7